Time;durP1;ratioP1;P1;durP2;ratioP2;P2;SDS_P1;SDS_P2;PMS_P1;PMS_P2;Temp;Humidity;BMP_temperature;BMP_pressure;BME280_temperature;BME280_humidity;BME280_pressure;Samples;Min_cycle;Max_cycle;Signal;HPM_P1;HPM_P2
2020/12/27 00:00:24;;;;;;;10.23;5.30;;;;;;;2.48;62.08;101087.33;1760275;79;21121;-39
2020/12/27 00:02:51;;;;;;;9.43;4.72;;;;;;;2.47;62.01;101087.34;1746106;80;21177;-39
2020/12/27 00:05:20;;;;;;;8.05;5.35;;;;;;;2.44;61.95;101093.52;1763269;78;21197;-38
2020/12/27 00:07:49;;;;;;;10.40;5.83;;;;;;;2.41;62.00;101096.66;1759062;78;21160;-38
2020/12/27 00:10:16;;;;;;;8.48;5.67;;;;;;;2.38;62.02;101101.53;1765073;78;21124;-38
2020/12/27 00:12:44;;;;;;;8.53;5.17;;;;;;;2.38;61.98;101104.16;1772726;78;21113;-38
2020/12/27 00:15:11;;;;;;;8.63;5.83;;;;;;;2.36;62.00;101102.86;1750565;80;21187;-38
2020/12/27 00:17:39;;;;;;;8.08;4.85;;;;;;;2.35;62.03;101103.77;1779609;78;21102;-37
2020/12/27 00:20:06;;;;;;;8.23;5.05;;;;;;;2.35;62.03;101100.27;1770725;79;21136;-39
2020/12/27 00:22:34;;;;;;;9.18;4.80;;;;;;;2.35;62.00;101102.90;1808320;77;21201;-36
2020/12/27 00:25:02;;;;;;;8.40;4.35;;;;;;;2.33;62.01;101098.96;1804396;78;21148;-39
2020/12/27 00:27:30;;;;;;;8.95;4.65;;;;;;;2.32;62.03;101095.91;1810376;78;21153;-39
2020/12/27 00:29:58;;;;;;;7.78;4.35;;;;;;;2.31;61.99;101108.64;1770952;79;21208;-38
2020/12/27 00:32:28;;;;;;;7.83;4.37;;;;;;;2.30;61.91;101102.09;1773451;79;21151;-36
2020/12/27 00:34:56;;;;;;;6.95;4.35;;;;;;;2.27;61.89;101096.44;1766231;79;21162;-38
2020/12/27 00:37:24;;;;;;;5.20;3.22;;;;;;;2.26;61.89;101092.05;1772867;79;21648;-38
2020/12/27 00:39:53;;;;;;;6.33;3.22;;;;;;;2.24;61.92;101092.95;1769242;79;21144;-38
2020/12/27 00:42:21;;;;;;;5.60;3.40;;;;;;;2.25;61.89;101092.95;1749070;80;21205;-40
2020/12/27 00:44:50;;;;;;;6.47;3.75;;;;;;;2.25;61.78;101095.58;1789437;78;21129;-40
2020/12/27 00:47:18;;;;;;;4.67;3.15;;;;;;;2.25;61.87;101099.52;1799083;77;21157;-38
2020/12/27 00:49:46;;;;;;;6.00;3.50;;;;;;;2.25;61.83;101090.77;1778529;78;21128;-35
2020/12/27 00:52:13;;;;;;;6.62;3.40;;;;;;;2.24;61.85;101089.87;1785387;77;21144;-39
2020/12/27 00:54:41;;;;;;;7.03;4.60;;;;;;;2.24;61.99;101083.75;1753982;79;21152;-40
2020/12/27 00:57:08;;;;;;;6.47;4.37;;;;;;;2.22;62.05;101081.16;1793937;77;21128;-38
2020/12/27 00:59:36;;;;;;;7.55;4.83;;;;;;;2.22;62.00;101086.84;1775042;78;21157;-37
2020/12/27 01:02:04;;;;;;;6.40;4.55;;;;;;;2.21;62.06;101091.23;1749920;79;21175;-40
2020/12/27 01:04:47;;;;;;;6.80;4.37;;;;;;;2.18;62.29;101099.19;1763854;80;21329;-38
2020/12/27 01:07:16;;;;;;;6.03;3.85;;;;;;;2.14;62.39;101105.38;1773963;79;21185;-39
2020/12/27 01:09:46;;;;;;;6.45;3.98;;;;;;;2.11;62.48;101108.05;1764407;79;22147;-44
2020/12/27 01:12:13;;;;;;;8.25;4.25;;;;;;;2.11;62.60;101101.47;1801523;77;21184;-37
2020/12/27 01:14:41;;;;;;;8.10;4.85;;;;;;;2.11;62.59;101104.97;1774950;78;21141;-39
2020/12/27 01:17:13;;;;;;;10.88;5.67;;;;;;;2.10;62.45;101101.06;1757606;78;21121;-38
2020/12/27 01:19:40;;;;;;;8.35;5.47;;;;;;;2.08;62.40;101095.81;1753030;79;21145;-40
2020/12/27 01:22:08;;;;;;;11.30;5.53;;;;;;;2.07;62.39;101099.80;1747338;79;21688;-37
2020/12/27 01:25:12;;;;;;;11.60;5.75;;;;;;;2.11;62.47;101093.12;1796966;78;23660;-36
2020/12/27 01:27:40;;;;;;;7.20;4.53;;;;;;;2.12;62.36;101112.44;1734745;80;21214;-39
2020/12/27 01:30:07;;;;;;;8.85;4.95;;;;;;;2.12;62.36;101115.08;1728087;80;21446;-39
2020/12/27 01:32:37;;;;;;;11.97;6.12;;;;;;;2.10;62.40;101112.45;1723955;80;21168;-37
2020/12/27 01:35:04;;;;;;;8.78;4.95;;;;;;;2.11;62.68;101116.81;1732403;81;21215;-38
2020/12/27 01:37:32;;;;;;;10.25;5.87;;;;;;;2.12;62.62;101115.94;1698401;81;21177;-37
2020/12/27 01:40:00;;;;;;;7.55;5.15;;;;;;;2.15;62.54;101119.84;1701874;81;21177;-38
2020/12/27 01:42:27;;;;;;;7.95;4.50;;;;;;;2.17;62.54;101123.77;1648176;84;21188;-38
2020/12/27 01:44:55;;;;;;;12.37;5.25;;;;;;;2.18;62.50;101124.64;1685421;83;21169;-41
2020/12/27 01:47:40;;;;;;;7.05;4.28;;;;;;;2.20;62.49;101130.30;1693261;82;21917;-39
2020/12/27 01:50:08;;;;;;;6.85;4.10;;;;;;;2.20;62.71;101126.36;1674409;83;21164;-41
2020/12/27 01:52:35;;;;;;;10.38;5.03;;;;;;;2.24;62.66;101136.38;1675770;84;21177;-41
2020/12/27 01:55:06;;;;;;;7.05;5.03;;;;;;;2.25;62.55;101132.88;1679401;83;21205;-39
2020/12/27 01:58:11;;;;;;;7.17;3.45;;;;;;;2.27;62.64;101137.65;1668320;84;21887;-41
2020/12/27 02:00:39;;;;;;;5.33;3.70;;;;;;;2.28;62.58;101143.36;1674799;83;21221;-40
2020/12/27 02:03:47;;;;;;;6.05;4.08;;;;;;;2.34;62.52;101147.20;1794631;78;23104;-40
2020/12/27 02:06:24;;;;;;;7.78;5.65;;;;;;;2.35;62.47;101149.83;1776156;78;28591;-39
2020/12/27 02:08:53;;;;;;;7.40;5.17;;;;;;;2.29;62.56;101153.88;1761575;79;21125;-39
2020/12/27 02:11:28;;;;;;;8.88;4.87;;;;;;;2.43;62.50;101160.70;1761236;80;21271;-38
2020/12/27 02:14:01;;;;;;;7.95;4.90;;;;;;;2.45;62.42;101166.38;1760821;80;21149;-38
2020/12/27 02:16:29;;;;;;;6.72;4.87;;;;;;;2.46;62.40;101165.92;1764003;80;21506;-38
2020/12/27 02:19:15;;;;;;;6.30;4.05;;;;;;;2.47;62.43;101168.55;1769253;79;21258;-37
2020/12/27 02:21:44;;;;;;;7.72;4.75;;;;;;;2.48;62.32;101162.37;1766357;80;21133;-39
2020/12/27 02:24:15;;;;;;;6.28;3.85;;;;;;;2.48;62.19;101165.00;1766959;79;22088;-37
2020/12/27 02:27:00;;;;;;;6.17;4.10;;;;;;;2.51;62.19;101162.77;1760741;79;21164;-38
2020/12/27 02:29:28;;;;;;;6.72;3.75;;;;;;;2.51;62.31;101166.27;1744315;80;21148;-40
2020/12/27 02:31:57;;;;;;;4.90;3.65;;;;;;;2.52;62.44;101165.81;1720311;82;21143;-40
2020/12/27 02:34:24;;;;;;;5.00;3.40;;;;;;;2.51;62.58;101172.85;1748561;80;21129;-40
2020/12/27 02:36:52;;;;;;;5.83;3.77;;;;;;;2.54;62.65;101178.07;1713592;82;21106;-39
2020/12/27 02:39:22;;;;;;;4.50;3.20;;;;;;;2.55;62.53;101177.20;1688982;83;21153;-38
2020/12/27 02:41:50;;;;;;;4.97;3.15;;;;;;;2.55;62.37;101177.20;1687442;83;21629;-40
2020/12/27 02:44:19;;;;;;;4.17;3.40;;;;;;;2.53;62.28;101178.97;1683265;83;21187;-38
2020/12/27 02:46:49;;;;;;;6.33;3.83;;;;;;;2.53;62.31;101184.70;1711200;82;21116;-39
2020/12/27 02:49:32;;;;;;;5.35;3.95;;;;;;;2.51;62.38;101178.58;1687019;83;21161;-40
2020/12/27 02:52:01;;;;;;;5.17;3.65;;;;;;;2.53;62.49;101187.33;1712140;82;21149;-37
2020/12/27 02:54:30;;;;;;;7.47;4.45;;;;;;;2.54;62.67;101188.60;1713459;83;21129;-37
2020/12/27 02:56:58;;;;;;;4.15;3.12;;;;;;;2.55;62.79;101193.45;1684305;85;21141;-39
2020/12/27 02:59:25;;;;;;;6.17;4.12;;;;;;;2.55;62.82;101195.63;1707058;83;21177;-37
2020/12/27 03:01:55;;;;;;;5.55;3.40;;;;;;;2.56;62.61;101200.45;1679309;85;21580;-39
2020/12/27 03:04:33;;;;;;;9.08;5.08;;;;;;;2.55;62.49;101196.95;1678095;84;21149;-38
2020/12/27 03:07:02;;;;;;;5.65;3.83;;;;;;;2.53;62.46;101196.09;1728109;81;21557;-38
2020/12/27 03:09:41;;;;;;;7.67;4.58;;;;;;;2.56;62.50;101201.31;1800007;79;23079;-39
2020/12/27 03:12:10;;;;;;;7.20;4.08;;;;;;;2.52;62.69;101202.69;1774289;79;21620;-38
2020/12/27 03:14:38;;;;;;;6.40;3.75;;;;;;;2.51;62.75;101208.41;1778571;79;21129;-37
2020/12/27 03:17:24;;;;;;;4.80;3.22;;;;;;;2.53;62.75;101214.52;1768002;78;21298;-39
2020/12/27 03:20:18;;;;;;;5.80;3.60;;;;;;;2.62;62.75;101224.50;1803989;77;22948;-39
2020/12/27 03:22:47;;;;;;;6.25;3.85;;;;;;;2.62;62.75;101220.55;1758321;80;21161;-37
2020/12/27 03:25:27;;;;;;;5.70;4.00;;;;;;;2.69;62.85;101229.66;1764755;79;22948;-39
2020/12/27 03:27:54;;;;;;;8.13;4.08;;;;;;;2.68;62.75;101225.75;1726856;82;21165;-38
2020/12/27 03:30:22;;;;;;;8.73;4.58;;;;;;;2.70;62.67;101230.55;1716130;82;21141;-42
2020/12/27 03:32:50;;;;;;;5.17;3.22;;;;;;;2.71;62.71;101235.78;1678067;82;21577;-40
2020/12/27 03:35:19;;;;;;;4.92;3.72;;;;;;;2.72;62.63;101230.06;1714244;83;21134;-42
2020/12/27 03:37:47;;;;;;;4.92;3.30;;;;;;;2.74;62.77;101234.87;1719262;82;21129;-41
2020/12/27 03:40:27;;;;;;;4.75;3.52;;;;;;;2.78;62.79;101226.91;1795505;78;23078;-40
2020/12/27 03:42:59;;;;;;;4.95;3.37;;;;;;;2.76;62.78;101239.22;1769847;79;22032;-40
2020/12/27 03:45:27;;;;;;;4.95;2.98;;;;;;;2.78;62.87;101237.44;1738631;81;21178;-37
2020/12/27 03:48:13;;;;;;;4.87;2.98;;;;;;;2.78;62.68;101241.39;1726215;82;21197;-39
2020/12/27 03:50:54;;;;;;;4.47;2.98;;;;;;;2.78;62.71;101241.39;1721572;82;21136;-39
2020/12/27 03:53:23;;;;;;;5.10;3.83;;;;;;;2.79;62.59;101239.63;1718336;81;21157;-38
2020/12/27 03:55:52;;;;;;;6.47;4.20;;;;;;;2.79;62.46;101231.27;1722071;82;21672;-40
2020/12/27 03:58:22;;;;;;;6.12;3.87;;;;;;;2.81;62.32;101242.66;1739698;81;21181;-40
2020/12/27 04:00:58;;;;;;;8.38;4.85;;;;;;;2.86;62.20;101244.37;1778156;77;27963;-41
2020/12/27 04:03:27;;;;;;;5.67;3.80;;;;;;;2.82;62.17;101252.74;1707645;82;21150;-40
2020/12/27 04:05:56;;;;;;;7.00;4.10;;;;;;;2.87;62.02;101256.18;1699293;82;21118;-41
2020/12/27 04:08:26;;;;;;;5.47;3.27;;;;;;;2.83;61.96;101257.14;1704779;83;21565;-38
2020/12/27 04:10:54;;;;;;;6.10;3.67;;;;;;;2.77;62.09;101251.52;1699248;83;21145;-40
2020/12/27 04:13:22;;;;;;;5.55;3.35;;;;;;;2.74;62.32;101262.07;1704828;82;21491;-38
2020/12/27 04:15:55;;;;;;;6.20;3.77;;;;;;;2.75;62.38;101264.29;1705485;82;21129;-40
2020/12/27 04:18:24;;;;;;;4.62;3.17;;;;;;;2.77;62.47;101273.02;1707731;83;21589;-41
2020/12/27 04:21:14;;;;;;;5.67;3.90;;;;;;;2.79;62.74;101277.37;1704521;82;21133;-39
2020/12/27 04:23:44;;;;;;;4.85;3.98;;;;;;;2.81;62.99;101277.36;1702375;82;21673;-39
2020/12/27 04:26:15;;;;;;;6.20;3.98;;;;;;;2.81;63.03;101274.27;1700964;82;22047;-42
2020/12/27 04:28:43;;;;;;;7.12;4.20;;;;;;;2.84;62.91;101273.36;1658825;85;21172;-39
2020/12/27 04:31:13;;;;;;;6.37;4.08;;;;;;;2.89;62.88;101270.21;1679059;83;21185;-38
2020/12/27 04:33:43;;;;;;;;;;;;;;;2.91;62.74;101268.88;1680576;83;21145;-37
2020/12/27 04:36:12;;;;;;;9.05;4.45;;;;;;;2.91;62.64;101275.02;1680166;84;20159;-38
2020/12/27 04:38:40;;;;;;;8.45;4.22;;;;;;;2.90;62.77;101280.30;1677689;83;21133;-52
2020/12/27 04:41:08;;;;;;;5.78;3.50;;;;;;;2.88;62.88;101282.11;1655719;83;21156;-39
2020/12/27 04:43:36;;;;;;;6.53;4.08;;;;;;;2.89;62.67;101274.62;1670972;84;21291;-38
2020/12/27 04:46:04;;;;;;;5.95;4.05;;;;;;;2.90;62.44;101273.29;1685431;83;21155;-38
2020/12/27 04:48:38;;;;;;;6.10;4.00;;;;;;;2.93;62.58;101275.88;1680057;83;21177;-62
2020/12/27 04:51:25;;;;;;;6.10;3.72;;;;;;;2.98;62.75;101283.27;1802375;78;23092;-38
2020/12/27 04:53:57;;;;;;;6.90;3.77;;;;;;;2.95;62.74;101295.63;1776563;79;21145;-39
2020/12/27 04:56:29;;;;;;;6.35;3.85;;;;;;;2.93;62.87;101291.69;1751926;80;21284;-37
2020/12/27 04:59:01;;;;;;;4.92;4.00;;;;;;;2.95;62.99;101295.17;1780472;79;21122;-38
2020/12/27 05:01:29;;;;;;;4.22;3.12;;;;;;;2.96;63.15;101301.31;1742644;80;21141;-37
2020/12/27 05:03:59;;;;;;;5.07;3.23;;;;;;;2.98;63.06;101308.75;1775854;80;21168;-37
2020/12/27 05:06:31;;;;;;;6.75;3.70;;;;;;;3.00;62.89;101309.16;1785119;79;21520;-39
2020/12/27 05:09:00;;;;;;;4.87;3.62;;;;;;;3.00;62.60;101306.52;1755842;80;21177;-38
2020/12/27 05:11:29;;;;;;;4.70;3.12;;;;;;;3.01;62.37;101305.61;1782081;79;21117;-37
2020/12/27 05:13:59;;;;;;;5.83;4.23;;;;;;;3.04;62.28;101314.78;1777367;78;21106;-38
2020/12/27 05:16:56;;;;;;;7.50;4.95;;;;;;;3.09;62.07;101305.50;1872298;74;28056;-38
2020/12/27 05:19:26;;;;;;;;;;;;;;;3.07;61.95;101303.33;1863767;75;21093;-38
2020/12/27 05:21:55;;;;;;;7.05;4.10;;;;;;;3.16;61.96;101311.11;1865450;75;20154;-40
2020/12/27 05:24:27;;;;;;;6.35;3.83;;;;;;;3.16;62.15;101324.30;1844898;75;21121;-38
2020/12/27 05:26:59;;;;;;;5.75;3.98;;;;;;;3.14;62.38;101331.80;1798010;77;21476;-37
2020/12/27 05:29:42;;;;;;;7.90;4.22;;;;;;;3.16;62.45;101325.61;1809342;78;23091;-38
2020/12/27 05:32:31;;;;;;;7.17;4.00;;;;;;;3.13;62.42;101340.61;1724223;81;21161;-38
2020/12/27 05:35:25;;;;;;;5.50;3.83;;;;;;;3.18;62.35;101335.69;1801981;77;22345;-38
2020/12/27 05:38:06;;;;;;;5.30;3.40;;;;;;;3.14;62.03;101342.34;1773018;78;21172;-38
2020/12/27 05:40:52;;;;;;;5.20;3.83;;;;;;;3.13;61.78;101345.89;1766700;79;21567;-38
2020/12/27 05:43:21;;;;;;;7.97;3.80;;;;;;;3.12;62.10;101345.44;1771366;78;21141;-38
2020/12/27 05:46:03;;;;;;;6.80;4.17;;;;;;;3.13;62.33;101344.11;1806309;78;22981;-38
2020/12/27 05:48:31;;;;;;;5.40;3.33;;;;;;;3.08;62.49;101355.17;1749253;80;21684;-37
2020/12/27 05:51:02;;;;;;;6.12;3.70;;;;;;;3.07;62.66;101360.00;1754544;80;21133;-38
2020/12/27 05:53:32;;;;;;;6.60;3.80;;;;;;;3.09;62.63;101363.94;1745152;80;21164;-37
2020/12/27 05:56:01;;;;;;;;;;;;;;;3.10;62.59;101374.47;1743660;81;21138;-40
2020/12/27 05:58:30;;;;;;;6.95;4.75;;;;;;;3.11;62.61;101372.70;1722338;81;20433;-39
2020/12/27 06:01:02;;;;;;;7.65;4.83;;;;;;;3.12;62.63;101380.57;1706393;83;22034;-37
2020/12/27 06:03:31;;;;;;;8.58;5.20;;;;;;;3.14;62.60;101391.11;1719795;81;21149;-39
2020/12/27 06:06:08;;;;;;;6.87;5.33;;;;;;;3.15;62.52;101391.52;1693027;83;21915;-37
2020/12/27 06:09:02;;;;;;;8.65;5.22;;;;;;;3.15;62.67;101399.01;1744490;81;21656;-39
2020/12/27 06:11:54;;;;;;;8.05;5.33;;;;;;;3.15;62.73;101402.96;1747621;81;21616;-40
2020/12/27 06:14:40;;;;;;;8.03;5.12;;;;;;;3.19;62.83;101411.23;1802199;78;23833;-42
2020/12/27 06:17:48;;;;;;;8.63;5.00;;;;;;;3.13;62.81;101408.69;1742052;81;21169;-37
2020/12/27 06:20:36;;;;;;;7.37;4.65;;;;;;;3.13;62.76;101410.46;1718566;82;21260;-38
2020/12/27 06:23:04;;;;;;;6.83;4.53;;;;;;;3.14;62.75;101419.65;1722087;82;21324;-39
2020/12/27 06:26:02;;;;;;;11.93;7.67;;;;;;;3.17;62.85;101419.60;1787164;78;28105;-37
2020/12/27 06:28:30;;;;;;;8.75;6.10;;;;;;;3.15;63.00;101425.37;1691515;81;21157;-53
2020/12/27 06:31:08;;;;;;;12.43;9.03;;;;;;;3.29;62.87;101420.34;1784929;78;28085;-37
2020/12/27 06:33:41;;;;;;;8.53;6.10;;;;;;;3.28;63.01;101427.39;1774925;79;21144;-38
2020/12/27 06:36:34;;;;;;;9.48;5.75;;;;;;;3.34;62.86;101422.48;1709983;81;21105;-38
2020/12/27 06:39:27;;;;;;;9.18;5.22;;;;;;;3.34;62.79;101429.06;1741136;81;21141;-37
2020/12/27 06:42:29;;;;;;;9.25;5.65;;;;;;;3.30;62.85;101433.52;1799567;78;23101;-37
2020/12/27 06:45:06;;;;;;;6.97;5.10;;;;;;;3.25;62.78;101445.86;1729401;81;21172;-37
2020/12/27 06:47:52;;;;;;;10.55;7.22;;;;;;;3.22;62.51;101448.55;1703238;83;21205;-38
2020/12/27 06:50:24;;;;;;;8.80;6.33;;;;;;;3.22;62.27;101454.69;1747857;81;21664;-37
2020/12/27 06:53:13;;;;;;;7.80;5.03;;;;;;;3.30;62.21;101451.08;1802748;78;23066;-37
2020/12/27 06:55:52;;;;;;;7.58;4.85;;;;;;;3.27;62.08;101452.45;1639307;86;21192;-50
2020/12/27 06:59:00;;;;;;;7.58;5.53;;;;;;;3.33;61.89;101453.25;1789217;78;23035;-40
2020/12/27 07:01:28;;;;;;;7.15;4.17;;;;;;;3.30;61.96;101462.53;1744067;81;21137;-39
2020/12/27 07:04:18;;;;;;;7.25;4.72;;;;;;;3.32;61.83;101462.48;1716131;82;21125;-39
2020/12/27 07:06:48;;;;;;;7.12;4.60;;;;;;;3.32;61.65;101471.72;1710833;82;21171;-39
2020/12/27 07:09:24;;;;;;;8.93;5.55;;;;;;;3.34;61.44;101472.58;1721695;82;21160;-38
2020/12/27 07:12:10;;;;;;;6.97;4.78;;;;;;;3.38;61.31;101471.20;1793868;77;23068;-36
2020/12/27 07:14:43;;;;;;;7.92;5.15;;;;;;;3.34;61.33;101477.84;1774531;79;21148;-38
2020/12/27 07:17:20;;;;;;;9.05;5.33;;;;;;;3.39;61.28;101478.20;1798425;78;23086;-55
2020/12/27 07:19:47;;;;;;;7.22;5.58;;;;;;;3.37;61.18;101480.44;1758310;80;21157;-40
2020/12/27 07:22:15;;;;;;;9.15;5.78;;;;;;;3.38;61.38;101486.16;1724775;80;21173;-38
2020/12/27 07:24:42;;;;;;;6.85;4.75;;;;;;;3.39;61.51;101478.66;1748344;80;21736;-43
2020/12/27 07:27:11;;;;;;;7.85;5.50;;;;;;;3.40;61.53;101469.42;1737444;81;21165;-39
2020/12/27 07:29:39;;;;;;;7.65;5.35;;;;;;;3.43;61.38;101469.83;1725116;81;21549;-39
2020/12/27 07:32:07;;;;;;;5.70;4.67;;;;;;;3.45;61.19;101469.34;1717470;81;21596;-39
2020/12/27 07:34:35;;;;;;;6.17;4.72;;;;;;;3.46;61.25;101475.05;1722122;81;21592;-37
2020/12/27 07:37:06;;;;;;;8.18;5.40;;;;;;;3.47;61.37;101479.42;1677400;83;21601;-39
2020/12/27 07:39:57;;;;;;;8.13;5.92;;;;;;;3.47;61.64;101480.74;1704821;83;21858;-40
2020/12/27 07:42:29;;;;;;;8.75;6.65;;;;;;;3.49;61.71;101489.97;1715661;83;21570;-40
2020/12/27 07:44:59;;;;;;;10.08;6.62;;;;;;;3.51;61.67;101492.14;1740439;81;21457;-39
2020/12/27 07:47:28;;;;;;;10.23;6.17;;;;;;;3.50;61.64;101491.25;1718707;82;21592;-38
2020/12/27 07:50:14;;;;;;;8.25;6.25;;;;;;;3.52;61.58;101502.66;1722880;82;21465;-39
2020/12/27 07:52:59;;;;;;;8.03;6.50;;;;;;;3.53;61.56;101506.16;1720063;82;21117;-39
2020/12/27 07:55:34;;;;;;;10.63;5.67;;;;;;;3.56;61.56;101507.46;1719412;82;21161;-39
2020/12/27 07:58:04;;;;;;;8.48;6.20;;;;;;;3.58;61.59;101510.92;1712428;82;21144;-39
2020/12/27 08:00:33;;;;;;;10.15;6.45;;;;;;;3.58;61.64;101515.78;1725065;82;21205;-37
2020/12/27 08:03:07;;;;;;;10.70;5.42;;;;;;;3.56;61.66;101510.97;1722721;82;21186;-38
2020/12/27 08:05:39;;;;;;;9.40;5.42;;;;;;;3.56;61.71;101508.33;1719745;82;21114;-38
2020/12/27 08:08:10;;;;;;;9.08;5.80;;;;;;;3.58;61.69;101514.88;1719998;82;21465;-38
2020/12/27 08:10:38;;;;;;;7.50;4.80;;;;;;;3.58;61.75;101517.10;1724304;82;21605;-38
2020/12/27 08:13:07;;;;;;;6.62;4.83;;;;;;;3.60;61.78;101516.64;1718805;82;21169;-38
2020/12/27 08:15:39;;;;;;;7.40;5.58;;;;;;;3.61;61.88;101518.37;1715043;82;21571;-39
2020/12/27 08:18:08;;;;;;;7.65;5.10;;;;;;;3.63;61.86;101524.95;1700896;83;21169;-39
2020/12/27 08:20:49;;;;;;;6.90;4.12;;;;;;;3.64;61.84;101528.01;1720757;82;21115;-38
2020/12/27 08:23:19;;;;;;;6.40;4.67;;;;;;;3.65;61.79;101527.10;1765759;80;21130;-38
2020/12/27 08:25:59;;;;;;;6.00;4.53;;;;;;;3.69;61.85;101526.18;1763448;80;21554;-39
2020/12/27 08:28:27;;;;;;;5.33;4.17;;;;;;;3.71;61.86;101528.36;1765272;80;21606;-38
2020/12/27 08:30:54;;;;;;;6.35;4.87;;;;;;;3.73;61.87;101527.89;1767214;80;21434;-38
2020/12/27 08:33:22;;;;;;;6.45;4.65;;;;;;;3.76;61.75;101537.53;1761704;81;21531;-40
2020/12/27 08:35:57;;;;;;;7.33;5.47;;;;;;;3.77;61.64;101534.86;1762870;80;21143;-37
2020/12/27 08:38:53;;;;;;;6.55;4.62;;;;;;;3.78;61.71;101529.13;1764696;80;21130;-38
2020/12/27 08:41:26;;;;;;;9.08;5.33;;;;;;;3.79;61.76;101529.12;1713614;82;21583;-39
2020/12/27 08:44:24;;;;;;;7.15;4.50;;;;;;;3.82;61.69;101528.20;1762817;80;21645;-39
2020/12/27 08:46:51;;;;;;;5.67;4.47;;;;;;;3.85;61.50;101524.19;1763742;80;21166;-40
2020/12/27 08:49:48;;;;;;;6.70;4.90;;;;;;;3.88;61.28;101525.04;1707344;82;21140;-39
2020/12/27 08:52:21;;;;;;;7.30;5.58;;;;;;;3.93;61.35;101525.41;1699474;82;21492;-39
2020/12/27 08:55:01;;;;;;;8.75;6.47;;;;;;;3.92;61.12;101515.30;1763251;80;21127;-39
2020/12/27 08:57:29;;;;;;;10.37;6.37;;;;;;;3.94;61.36;101519.25;1727691;82;21582;-38
2020/12/27 09:00:08;;;;;;;8.65;6.75;;;;;;;4.00;61.09;101509.91;1759843;80;21132;-41
2020/12/27 09:02:36;;;;;;;10.35;7.85;;;;;;;4.04;60.66;101515.13;1758037;80;21193;-40
2020/12/27 09:05:10;;;;;;;15.90;8.25;;;;;;;4.04;60.50;101512.48;1761937;80;21154;-39
2020/12/27 09:07:42;;;;;;;10.05;6.35;;;;;;;4.07;60.44;101509.78;1759411;80;21257;-38
2020/12/27 09:10:14;;;;;;;10.20;5.78;;;;;;;4.13;60.39;101508.81;1759623;80;21134;-37
2020/12/27 09:13:02;;;;;;;7.35;4.40;;;;;;;4.23;60.38;101502.48;1762464;80;21142;-38
2020/12/27 09:15:35;;;;;;;7.22;4.42;;;;;;;4.34;60.01;101505.84;1760103;79;21196;-39
2020/12/27 09:18:09;;;;;;;7.03;5.05;;;;;;;4.43;59.21;101500.84;1770142;80;21125;-37
2020/12/27 09:20:38;;;;;;;8.78;5.12;;;;;;;4.47;58.95;101501.67;1714265;82;21150;-41
2020/12/27 09:23:17;;;;;;;6.25;3.83;;;;;;;4.52;58.61;101501.15;1705847;83;21161;-38
2020/12/27 09:25:46;;;;;;;6.47;4.35;;;;;;;4.57;58.21;101489.19;1768189;80;21138;-40
2020/12/27 09:28:17;;;;;;;5.85;3.75;;;;;;;4.62;58.08;101491.30;1762900;80;21178;-40
2020/12/27 09:30:48;;;;;;;4.78;3.17;;;;;;;4.68;57.88;101493.81;1768545;80;21223;-39
2020/12/27 09:33:20;;;;;;;5.45;3.77;;;;;;;4.77;56.99;101485.73;1763312;80;21145;-40
2020/12/27 09:35:57;;;;;;;5.90;4.12;;;;;;;4.81;56.50;101492.68;1767826;80;21696;-38
2020/12/27 09:38:29;;;;;;;4.92;3.58;;;;;;;4.83;56.25;101500.14;1774532;80;21129;-39
2020/12/27 09:41:13;;;;;;;4.87;3.67;;;;;;;4.86;56.32;101497.42;1772981;80;21102;-38
2020/12/27 09:43:53;;;;;;;4.85;3.10;;;;;;;4.91;56.35;101496.03;1767721;80;21185;-38
2020/12/27 09:46:49;;;;;;;4.47;3.00;;;;;;;4.93;56.21;101503.03;1769717;80;21153;-37
2020/12/27 09:49:31;;;;;;;4.08;2.65;;;;;;;4.93;56.21;101503.03;1711733;82;21124;-37
2020/12/27 09:52:07;;;;;;;3.42;2.30;;;;;;;4.98;55.47;101506.45;1764618;80;21116;-38
2020/12/27 09:54:36;;;;;;;3.55;2.30;;;;;;;5.01;54.63;101498.91;1764946;80;21107;-39
2020/12/27 09:57:15;;;;;;;5.03;1.70;;;;;;;5.03;54.61;101501.54;1729353;81;21126;-39
2020/12/27 09:59:44;;;;;;;3.20;2.37;;;;;;;5.04;54.74;101509.88;1767011;80;21126;-41
2020/12/27 10:02:11;;;;;;;3.25;2.30;;;;;;;5.11;55.99;101515.47;1769256;80;21118;-40
2020/12/27 10:04:39;;;;;;;4.20;2.90;;;;;;;5.18;55.86;101514.00;1768166;79;21581;-39
2020/12/27 10:07:07;;;;;;;3.10;1.92;;;;;;;5.19;54.99;101516.19;1768619;80;21149;-40
2020/12/27 10:09:34;;;;;;;2.27;1.77;;;;;;;5.13;53.64;101505.74;1769045;80;21663;-41
2020/12/27 10:12:02;;;;;;;3.20;1.60;;;;;;;5.10;53.55;101508.45;1768320;80;21122;-40
2020/12/27 10:14:30;;;;;;;2.70;1.85;;;;;;;5.13;53.74;101511.03;1768400;79;21138;-40
2020/12/27 10:17:00;;;;;;;2.58;1.65;;;;;;;5.13;53.28;101507.93;1771028;80;21174;-38
2020/12/27 10:19:28;;;;;;;3.35;2.17;;;;;;;5.11;53.51;101503.12;1762474;80;21202;-41
2020/12/27 10:21:55;;;;;;;3.98;3.05;;;;;;;5.13;54.10;101509.25;1756014;80;21185;-40
2020/12/27 10:24:24;;;;;;;5.72;3.40;;;;;;;5.15;54.59;101511.42;1761236;80;21110;-38
2020/12/27 10:26:52;;;;;;;3.17;2.50;;;;;;;5.13;54.98;101505.74;1765589;80;21689;-38
2020/12/27 10:29:20;;;;;;;4.30;2.75;;;;;;;5.11;55.20;101505.77;1761390;80;21149;-39
2020/12/27 10:31:57;;;;;;;3.52;2.52;;;;;;;5.12;55.01;101495.63;1756245;80;21149;-41
2020/12/27 10:34:25;;;;;;;4.25;3.22;;;;;;;5.16;54.85;101507.00;1765366;80;21124;-39
2020/12/27 10:36:55;;;;;;;5.50;3.35;;;;;;;5.18;54.82;101505.20;1703019;82;21191;-38
2020/12/27 10:39:22;;;;;;;5.35;3.77;;;;;;;5.19;55.06;101506.50;1753040;80;21634;-39
2020/12/27 10:41:51;;;;;;;5.28;3.70;;;;;;;5.20;55.41;101506.91;1697671;82;21160;-40
2020/12/27 10:44:18;;;;;;;4.90;3.60;;;;;;;5.23;55.37;101508.63;1756751;80;21870;-38
2020/12/27 10:46:46;;;;;;;5.72;3.80;;;;;;;5.23;55.39;101502.02;1758830;80;21150;-36
2020/12/27 10:49:13;;;;;;;7.58;4.80;;;;;;;5.23;55.65;101509.08;1755914;80;21223;-47
2020/12/27 10:51:41;;;;;;;5.20;4.17;;;;;;;5.19;55.72;101509.58;1762080;80;21653;-38
2020/12/27 10:54:10;;;;;;;5.78;4.03;;;;;;;5.18;55.88;101511.81;1759470;80;21466;-39
2020/12/27 10:56:41;;;;;;;6.00;3.87;;;;;;;5.18;56.02;101504.74;1760266;80;21154;-39
2020/12/27 10:59:09;;;;;;;4.50;3.10;;;;;;;5.16;54.83;101501.70;1756373;79;21145;-41
2020/12/27 11:01:44;;;;;;;6.30;3.87;;;;;;;5.10;54.67;101493.91;1759691;80;22033;-39
2020/12/27 11:04:12;;;;;;;6.60;3.80;;;;;;;5.10;54.92;101494.78;1763550;80;21572;-38
2020/12/27 11:06:39;;;;;;;4.47;3.52;;;;;;;5.04;54.70;101492.27;1760924;80;21597;-39
2020/12/27 11:09:07;;;;;;;4.25;2.90;;;;;;;4.99;54.44;101486.20;1704522;82;21576;-37
2020/12/27 11:11:36;;;;;;;3.42;2.27;;;;;;;4.99;54.35;101480.91;1760347;80;21134;-38
2020/12/27 11:14:04;;;;;;;2.90;1.90;;;;;;;4.99;53.50;101478.27;1761398;80;21146;-38
2020/12/27 11:16:32;;;;;;;2.85;2.05;;;;;;;5.03;53.04;101465.84;1758930;80;21173;-39
2020/12/27 11:19:00;;;;;;;2.65;1.90;;;;;;;5.07;52.65;101471.05;1757926;80;21618;-38
2020/12/27 11:21:28;;;;;;;3.65;2.40;;;;;;;5.09;51.93;101469.25;1758171;80;21150;-38
2020/12/27 11:23:56;;;;;;;4.50;2.70;;;;;;;5.10;52.55;101474.95;1754922;80;21678;-39
2020/12/27 11:26:23;;;;;;;3.87;2.00;;;;;;;5.13;52.25;101477.98;1765491;80;21137;-39
2020/12/27 11:28:51;;;;;;;3.80;2.22;;;;;;;5.15;51.90;101475.72;1768309;80;21716;-40
2020/12/27 11:31:19;;;;;;;4.22;2.20;;;;;;;5.18;52.30;101470.36;1770266;80;21134;-39
2020/12/27 11:33:47;;;;;;;4.70;2.92;;;;;;;5.20;52.29;101473.86;1767838;80;21565;-40
2020/12/27 11:36:15;;;;;;;5.33;2.75;;;;;;;5.19;52.29;101472.55;1770224;80;21272;-40
2020/12/27 11:38:43;;;;;;;4.35;2.80;;;;;;;5.21;52.06;101469.42;1771016;80;21157;-42
2020/12/27 11:41:15;;;;;;;2.33;1.57;;;;;;;5.21;51.67;101472.94;1766516;80;21602;-40
2020/12/27 11:43:43;;;;;;;2.37;1.50;;;;;;;5.14;50.51;101461.20;1767444;80;21161;-40
2020/12/27 11:46:11;;;;;;;2.72;1.65;;;;;;;5.08;50.64;101456.05;1767060;80;21169;-41
2020/12/27 11:48:39;;;;;;;3.60;1.80;;;;;;;5.06;50.15;101452.56;1731680;82;21153;-40
2020/12/27 11:51:06;;;;;;;2.77;1.62;;;;;;;4.98;49.98;101461.97;1768056;80;21610;-39
2020/12/27 11:53:36;;;;;;;2.98;1.80;;;;;;;4.90;49.49;101459.47;1767694;80;21106;-39
2020/12/27 11:56:03;;;;;;;1.92;1.32;;;;;;;4.81;49.50;101459.64;1768146;80;21461;-43
2020/12/27 11:58:31;;;;;;;3.77;1.65;;;;;;;4.78;50.20;101455.75;1769012;80;21141;-43
2020/12/27 12:01:00;;;;;;;2.85;1.72;;;;;;;4.82;50.57;101453.47;1765666;80;21574;-44